Time,TemperatureF,DewpointF,PressureIn,WindDirection,WindDirectionDegrees,WindSpeedMPH,WindSpeedGustMPH,Humidity,HourlyPrecipIn,Conditions,Clouds,dailyrainin,SoftwareType,DateUTC
2013-03-05 00:04:00,65.7,65.1,29.83,South,171,14.1,19.6,98,0.00,,,0.00,WeatherDisplay:10.37,2013-03-05 06:04:00,
2013-03-05 00:09:00,65.6,65.0,29.83,South,178,12.6,20.8,98,0.00,,,0.00,WeatherDisplay:10.37,2013-03-05 06:09:00,
2013-03-05 00:14:00,65.5,64.9,29.83,South,191,13.7,23.5,98,0.00,CLR,,0.00,WeatherDisplay:10.37,2013-03-05 06:14:00,
2013-03-05 00:19:00,65.6,65.0,29.82,South,191,12.7,26.5,98,0.00,CLR,,0.00,WeatherDisplay:10.37,2013-03-05 06:19:00,
2013-03-05 00:24:00,65.5,64.9,29.82,SSW,192,13.7,24.2,98,0.00,CLR,,0.00,WeatherDisplay:10.37,2013-03-05 06:24:00,
2013-03-05 00:29:00,65.4,64.8,29.83,South,188,12.3,24.2,98,0.00,CLR,,0.00,WeatherDisplay:10.37,2013-03-05 06:29:00,
2013-03-05 00:34:00,65.4,65.1,29.83,South,185,13.8,21.9,99,0.00,,,0.00,WeatherDisplay:10.37,2013-03-05 06:34:00,
2013-03-05 00:39:00,65.4,65.1,29.83,South,189,13.9,23.6,99,0.00,,,0.00,WeatherDisplay:10.37,2013-03-05 06:39:00,
2013-03-05 00:44:00,65.3,65.0,29.82,SSE,150,16.1,26.7,99,0.00,,,0.00,WeatherDisplay:10.37,2013-03-05 06:44:00,
2013-03-05 00:49:00,65.3,65.0,29.83,South,175,15.3,23.6,99,0.00,CLR,,0.00,WeatherDisplay:10.37,2013-03-05 06:49:00,
2013-03-05 00:54:00,65.3,65.0,29.83,SSW,196,14.0,22.2,99,0.00,CLR,,0.00,WeatherDisplay:10.37,2013-03-05 06:54:00,
2013-03-05 00:59:00,65.3,65.0,29.82,South,175,12.7,21.9,99,0.00,CLR,,0.00,WeatherDisplay:10.37,2013-03-05 06:59:00,
2013-03-05 01:04:00,65.3,65.0,29.83,South,179,15.1,23.1,99,0.00,CLR,,0.00,WeatherDisplay:10.37,2013-03-05 07:04:00,
2013-03-05 01:09:00,65.2,64.9,29.83,South,185,15.3,26.5,99,0.00,,,0.00,WeatherDisplay:10.37,2013-03-05 07:09:00,
2013-03-05 01:14:00,65.2,64.9,29.83,South,179,15.7,22.0,99,0.00,,,0.00,WeatherDisplay:10.37,2013-03-05 07:14:00,
2013-03-05 01:19:00,65.3,65.0,29.83,South,169,14.5,20.3,99,0.00,,,0.00,WeatherDisplay:10.37,2013-03-05 07:19:00,
2013-03-05 01:24:00,65.2,64.9,29.83,South,189,13.7,20.8,99,0.00,CLR,,0.00,WeatherDisplay:10.37,2013-03-05 07:24:00,
2013-03-05 01:29:00,65.2,64.9,29.83,SSW,193,11.6,19.6,99,0.00,CLR,,0.00,WeatherDisplay:10.37,2013-03-05 07:29:00,
2013-03-05 01:34:00,65.2,64.9,29.83,SSW,192,15.0,23.4,99,0.00,CLR,,0.00,WeatherDisplay:10.37,2013-03-05 07:34:00,
2013-03-05 01:39:00,65.2,64.9,29.83,South,191,15.7,22.6,99,0.00,CLR,,0.00,WeatherDisplay:10.37,2013-03-05 07:39:00,
2013-03-05 01:44:00,65.1,64.8,29.83,South,189,15.6,23.7,99,0.00,CLR,,0.00,WeatherDisplay:10.37,2013-03-05 07:44:00,
2013-03-05 01:49:00,65.2,64.9,29.83,South,184,10.8,17.3,99,0.00,CLR,,0.00,WeatherDisplay:10.37,2013-03-05 07:49:00,
2013-03-05 01:54:00,65.0,64.7,29.83,South,182,13.5,18.4,99,0.00,CLR,,0.00,WeatherDisplay:10.37,2013-03-05 07:54:00,
2013-03-05 01:59:00,65.2,64.9,29.83,SSE,165,13.0,24.2,99,0.00,CLR,,0.00,WeatherDisplay:10.37,2013-03-05 07:59:00,
2013-03-05 02:04:00,65.1,64.8,29.83,SSW,195,12.1,18.5,99,0.00,CLR,,0.00,WeatherDisplay:10.37,2013-03-05 08:04:00,
2013-03-05 02:09:00,65.1,64.8,29.83,South,189,11.4,20.7,99,0.00,CLR,,0.00,WeatherDisplay:10.37,2013-03-05 08:09:00,
2013-03-05 02:14:00,65.1,64.8,29.83,SSW,195,14.5,24.2,99,0.00,CLR,,0.00,WeatherDisplay:10.37,2013-03-05 08:14:00,
2013-03-05 02:19:00,65.1,64.8,29.83,South,184,12.9,23.1,99,0.00,CLR,,0.00,WeatherDisplay:10.37,2013-03-05 08:19:00,
2013-03-05 02:24:00,65.1,64.8,29.83,SSW,195,15.0,22.1,99,0.00,CLR,,0.00,WeatherDisplay:10.37,2013-03-05 08:24:00,
2013-03-05 02:29:00,65.1,64.8,29.83,South,182,14.5,23.0,99,0.00,CLR,,0.00,WeatherDisplay:10.37,2013-03-05 08:29:00,
2013-03-05 02:34:00,65.1,64.8,29.83,South,178,14.7,21.9,99,0.00,,,0.00,WeatherDisplay:10.37,2013-03-05 08:34:00,
2013-03-05 02:39:00,65.2,64.6,29.83,South,174,12.6,22.4,98,0.00,,,0.00,WeatherDisplay:10.37,2013-03-05 08:39:00,
2013-03-05 02:44:00,65.2,64.6,29.84,South,188,13.4,23.0,98,0.00,,,0.00,WeatherDisplay:10.37,2013-03-05 08:44:00,
2013-03-05 02:49:00,65.2,64.6,29.84,SSE,152,13.2,23.0,98,0.00,CLR,,0.00,WeatherDisplay:10.37,2013-03-05 08:49:00,
2013-03-05 02:54:00,65.1,64.5,29.84,South,191,11.2,18.6,98,0.00,CLR,,0.00,WeatherDisplay:10.37,2013-03-05 08:54:00,
2013-03-05 02:59:00,65.1,64.5,29.84,South,179,12.4,20.7,98,0.00,CLR,,0.00,WeatherDisplay:10.37,2013-03-05 08:59:00,
2013-03-05 03:04:00,65.0,64.4,29.84,SSW,195,12.5,19.6,98,0.00,CLR,,0.00,WeatherDisplay:10.37,2013-03-05 09:04:00,
2013-03-05 03:09:00,65.0,64.4,29.83,South,171,13.8,21.9,98,0.00,CLR,,0.00,WeatherDisplay:10.37,2013-03-05 09:09:00,
2013-03-05 03:14:00,65.0,64.4,29.83,South,186,13.2,21.6,98,0.00,CLR,,0.00,WeatherDisplay:10.37,2013-03-05 09:14:00,
2013-03-05 03:19:00,64.9,64.3,29.83,South,181,10.0,19.6,98,0.00,CLR,,0.00,WeatherDisplay:10.37,2013-03-05 09:19:00,
2013-03-05 03:24:00,65.0,64.4,29.83,South,174,10.2,17.3,98,0.00,CLR,,0.00,WeatherDisplay:10.37,2013-03-05 09:24:00,
2013-03-05 03:29:00,65.0,64.7,29.83,SSW,210,7.9,13.8,99,0.00,CLR,,0.00,WeatherDisplay:10.37,2013-03-05 09:29:00,
2013-03-05 03:34:00,64.9,64.6,29.83,South,182,10.8,19.6,99,0.00,CLR,,0.00,WeatherDisplay:10.37,2013-03-05 09:34:00,
2013-03-05 03:39:00,64.9,64.6,29.83,South,188,11.5,17.3,99,0.00,CLR,,0.00,WeatherDisplay:10.37,2013-03-05 09:39:00,
2013-03-05 03:44:00,64.9,64.6,29.82,South,176,10.7,16.1,99,0.00,CLR,,0.00,WeatherDisplay:10.37,2013-03-05 09:44:00,
2013-03-05 03:50:00,65.0,64.7,29.82,South,186,10.5,18.4,99,0.00,CLR,,0.00,WeatherDisplay:10.37,2013-03-05 09:50:00,
2013-03-05 03:55:00,65.0,64.7,29.82,SSW,192,9.5,16.1,99,0.00,CLR,,0.00,WeatherDisplay:10.37,2013-03-05 09:55:00,
2013-03-05 04:00:00,65.0,64.7,29.83,South,175,10.9,18.4,99,0.00,CLR,,0.00,WeatherDisplay:10.37,2013-03-05 10:00:00,
2013-03-05 04:05:00,64.9,64.6,29.83,SSW,206,10.2,19.0,99,0.00,CLR,,0.00,WeatherDisplay:10.37,2013-03-05 10:05:00,
2013-03-05 04:10:00,65.0,64.7,29.83,South,176,10.7,20.0,99,0.00,CLR,,0.00,WeatherDisplay:10.37,2013-03-05 10:10:00,
2013-03-05 04:15:00,64.9,64.6,29.83,South,188,10.8,19.6,99,0.00,CLR,,0.00,WeatherDisplay:10.37,2013-03-05 10:15:00,
2013-03-05 04:20:00,64.9,64.6,29.83,South,176,11.5,17.3,99,0.00,CLR,,0.00,WeatherDisplay:10.37,2013-03-05 10:20:00,
2013-03-05 04:25:00,64.9,64.6,29.83,SSW,200,10.3,17.3,99,0.00,CLR,,0.00,WeatherDisplay:10.37,2013-03-05 10:25:00,
2013-03-05 04:30:00,64.9,64.6,29.83,South,176,11.1,25.3,99,0.00,CLR,,0.00,WeatherDisplay:10.37,2013-03-05 10:30:00,
2013-03-05 04:35:00,64.8,64.5,29.83,South,179,10.2,18.4,99,0.00,CLR,,0.00,WeatherDisplay:10.37,2013-03-05 10:35:00,
2013-03-05 04:40:00,64.8,64.5,29.84,South,182,10.5,18.4,99,0.00,CLR,,0.00,WeatherDisplay:10.37,2013-03-05 10:40:00,
2013-03-05 04:45:00,64.7,64.4,29.84,SSW,196,10.7,18.4,99,0.00,CLR,,0.00,WeatherDisplay:10.37,2013-03-05 10:45:00,
2013-03-05 04:50:00,64.8,64.5,29.84,South,185,9.9,17.3,99,0.00,CLR,,0.00,WeatherDisplay:10.37,2013-03-05 10:50:00,
2013-03-05 04:55:00,64.8,64.5,29.84,SSW,198,10.9,18.4,99,0.00,CLR,,0.00,WeatherDisplay:10.37,2013-03-05 10:55:00,
2013-03-05 05:00:00,64.8,64.5,29.84,South,169,11.9,19.6,99,0.00,CLR,,0.00,WeatherDisplay:10.37,2013-03-05 11:00:00,
2013-03-05 05:05:00,64.7,64.4,29.84,SSW,205,9.2,17.3,99,0.00,CLR,,0.00,WeatherDisplay:10.37,2013-03-05 11:05:00,
2013-03-05 05:10:00,64.7,64.4,29.84,SSW,200,11.0,20.6,99,0.00,CLR,,0.00,WeatherDisplay:10.37,2013-03-05 11:10:00,
2013-03-05 05:15:00,64.6,64.3,29.85,SSE,167,11.6,16.3,99,0.00,CLR,,0.00,WeatherDisplay:10.37,2013-03-05 11:15:00,
2013-03-05 05:20:00,64.8,64.5,29.85,SE,131,10.3,18.7,99,0.00,CLR,,0.00,WeatherDisplay:10.37,2013-03-05 11:20:00,
2013-03-05 05:25:00,64.7,64.4,29.85,SSW,202,11.6,16.1,99,0.00,CLR,,0.00,WeatherDisplay:10.37,2013-03-05 11:25:00,
2013-03-05 05:30:00,64.7,64.4,29.86,SSE,167,10.6,17.3,99,0.00,CLR,,0.00,WeatherDisplay:10.37,2013-03-05 11:30:00,
2013-03-05 05:35:00,64.7,64.4,29.86,SSE,164,10.3,15.0,99,0.00,CLR,,0.00,WeatherDisplay:10.37,2013-03-05 11:35:00,
2013-03-05 05:40:00,64.8,64.5,29.86,South,179,10.5,15.0,99,0.00,CLR,,0.00,WeatherDisplay:10.37,2013-03-05 11:40:00,
2013-03-05 05:45:00,64.7,64.4,29.86,South,181,9.8,19.6,99,0.00,CLR,,0.00,WeatherDisplay:10.37,2013-03-05 11:45:00,
2013-03-05 05:50:00,64.7,64.4,29.87,South,181,10.1,15.1,99,0.00,CLR,,0.00,WeatherDisplay:10.37,2013-03-05 11:50:00,
2013-03-05 05:55:00,64.7,64.4,29.87,South,176,10.6,16.1,99,0.00,CLR,,0.00,WeatherDisplay:10.37,2013-03-05 11:55:00,
2013-03-05 06:00:00,64.6,64.3,29.87,SSW,193,8.3,12.7,99,0.00,CLR,,0.00,WeatherDisplay:10.37,2013-03-05 12:00:00,
2013-03-05 06:05:00,64.6,64.3,29.88,South,171,9.5,13.8,99,0.00,CLR,,0.00,WeatherDisplay:10.37,2013-03-05 12:05:00,
2013-03-05 06:10:00,64.5,64.2,29.88,SSW,205,9.1,15.0,99,0.00,CLR,,0.00,WeatherDisplay:10.37,2013-03-05 12:10:00,
2013-03-05 06:15:00,64.5,64.2,29.88,SSW,209,9.1,15.0,99,0.00,CLR,,0.00,WeatherDisplay:10.37,2013-03-05 12:15:00,
2013-03-05 06:20:00,64.4,64.1,29.88,SSW,202,11.0,16.1,99,0.00,CLR,,0.00,WeatherDisplay:10.37,2013-03-05 12:20:00,
2013-03-05 06:25:00,64.5,64.2,29.91,NW,306,7.3,12.7,99,0.00,CLR,,0.00,WeatherDisplay:10.37,2013-03-05 12:25:00,
2013-03-05 06:30:00,64.1,63.8,29.99,NW,304,20.3,31.1,99,0.00,,,0.00,WeatherDisplay:10.37,2013-03-05 12:30:00,
2013-03-05 06:35:00,64.3,64.0,29.97,WNW,299,11.1,38.0,99,0.00,,,0.00,WeatherDisplay:10.37,2013-03-05 12:35:00,
2013-03-05 06:40:00,64.8,64.2,30.02,WNW,298,15.6,34.5,98,0.00,,,0.00,WeatherDisplay:10.37,2013-03-05 12:40:00,
2013-03-05 06:45:00,65.0,64.4,30.00,WNW,298,8.7,13.6,98,0.00,CLR,,0.00,WeatherDisplay:10.37,2013-03-05 12:45:00,
2013-03-05 06:50:00,65.2,64.0,30.03,NW,326,17.9,26.8,96,0.00,,,0.00,WeatherDisplay:10.37,2013-03-05 12:50:00,
2013-03-05 06:55:00,65.2,64.0,30.01,NNW,328,10.7,15.0,96,0.00,,,0.00,WeatherDisplay:10.37,2013-03-05 12:55:00,
2013-03-05 07:00:00,65.2,64.0,30.03,NNW,347,13.0,21.9,96,0.00,,,0.00,WeatherDisplay:10.37,2013-03-05 13:00:00,
2013-03-05 07:05:00,65.2,64.0,30.03,NW,323,6.7,13.8,96,0.00,CLR,,0.00,WeatherDisplay:10.37,2013-03-05 13:05:00,
2013-03-05 07:10:00,65.0,63.8,30.03,NNW,339,8.8,16.1,96,0.00,CLR,,0.00,WeatherDisplay:10.37,2013-03-05 13:10:00,
2013-03-05 07:15:00,64.9,63.7,30.03,North,350,9.5,12.7,96,0.00,CLR,,0.00,WeatherDisplay:10.37,2013-03-05 13:15:00,
2013-03-05 07:20:00,65.0,63.8,30.03,NNW,329,9.5,13.8,96,0.00,CLR,,0.00,WeatherDisplay:10.37,2013-03-05 13:20:00,
2013-03-05 07:25:00,65.0,63.8,30.03,North,349,9.4,13.8,96,0.00,CLR,,0.00,WeatherDisplay:10.37,2013-03-05 13:25:00,
2013-03-05 07:30:00,65.1,63.9,30.02,NE,54,6.3,11.5,96,0.00,CLR,,0.00,WeatherDisplay:10.37,2013-03-05 13:30:00,
2013-03-05 07:35:00,65.2,63.7,30.04,North,357,6.7,16.1,95,0.00,CLR,,0.00,WeatherDisplay:10.37,2013-03-05 13:35:00,
2013-03-05 07:41:00,65.2,63.7,30.04,NNW,344,7.8,11.7,95,0.00,CLR,,0.00,WeatherDisplay:10.37,2013-03-05 13:41:00,
2013-03-05 07:46:00,65.3,63.8,30.04,North,349,7.0,11.5,95,0.00,CLR,,0.00,WeatherDisplay:10.37,2013-03-05 13:46:00,
2013-03-05 07:51:00,65.4,63.9,30.03,NE,41,7.9,11.6,95,0.00,CLR,,0.00,WeatherDisplay:10.37,2013-03-05 13:51:00,
2013-03-05 07:56:00,65.5,64.0,30.03,ENE,71,8.9,13.8,95,0.00,CLR,,0.00,WeatherDisplay:10.37,2013-03-05 13:56:00,
2013-03-05 08:01:00,65.7,64.2,30.03,NE,45,7.1,13.8,95,0.00,CLR,,0.00,WeatherDisplay:10.37,2013-03-05 14:01:00,
2013-03-05 08:06:00,66.0,64.5,30.03,NE,55,7.5,10.4,95,0.00,CLR,,0.00,WeatherDisplay:10.37,2013-03-05 14:06:00,
2013-03-05 08:11:00,66.2,64.7,30.04,NE,35,7.5,10.5,95,0.00,CLR,,0.00,WeatherDisplay:10.37,2013-03-05 14:11:00,
2013-03-05 08:16:00,66.4,64.6,30.05,NE,41,5.7,9.2,94,0.00,CLR,,0.00,WeatherDisplay:10.37,2013-03-05 14:16:00,
2013-03-05 08:21:00,66.8,65.0,30.05,NE,55,7.4,13.8,94,0.00,CLR,,0.00,WeatherDisplay:10.37,2013-03-05 14:21:00,
2013-03-05 08:26:00,66.9,65.1,30.06,NNE,25,5.4,9.2,94,0.00,CLR,,0.00,WeatherDisplay:10.37,2013-03-05 14:26:00,
2013-03-05 08:31:00,67.0,64.9,30.06,NNE,28,5.6,11.5,93,0.00,CLR,,0.00,WeatherDisplay:10.37,2013-03-05 14:31:00,
2013-03-05 08:36:00,65.4,58.4,30.08,NW,304,17.1,33.4,78,0.00,,,0.00,WeatherDisplay:10.37,2013-03-05 14:36:00,
2013-03-05 08:41:00,63.0,54.6,30.09,NW,309,15.8,26.5,74,0.00,,,0.00,WeatherDisplay:10.37,2013-03-05 14:41:00,
2013-03-05 08:46:00,61.4,52.3,30.10,NNW,344,16.6,26.7,72,0.00,,,0.00,WeatherDisplay:10.37,2013-03-05 14:46:00,
2013-03-05 08:51:00,60.4,51.7,30.10,NNW,343,13.6,22.9,73,0.00,CLR,,0.00,WeatherDisplay:10.37,2013-03-05 14:51:00,
2013-03-05 08:56:00,59.9,50.5,30.11,North,356,17.3,28.8,71,0.00,,,0.00,WeatherDisplay:10.37,2013-03-05 14:56:00,
2013-03-05 09:01:00,59.4,48.8,30.11,NNW,344,16.5,27.6,68,0.00,,,0.00,WeatherDisplay:10.37,2013-03-05 15:01:00,
2013-03-05 09:06:00,59.1,48.1,30.11,North,3,17.7,33.4,67,0.00,,,0.00,WeatherDisplay:10.37,2013-03-05 15:06:00,
2013-03-05 09:11:00,59.0,48.1,30.12,NW,313,16.2,28.8,67,0.00,,,0.00,WeatherDisplay:10.37,2013-03-05 15:11:00,
2013-03-05 09:16:00,59.0,47.7,30.12,NNW,333,16.0,27.6,66,0.00,,,0.00,WeatherDisplay:10.37,2013-03-05 15:16:00,
2013-03-05 09:21:00,58.7,47.0,30.12,NNW,340,18.7,31.3,65,0.00,,,0.00,WeatherDisplay:10.37,2013-03-05 15:21:00,
2013-03-05 09:26:00,58.7,47.0,30.13,NNW,344,12.7,29.9,65,0.00,,,0.00,WeatherDisplay:10.37,2013-03-05 15:26:00,
2013-03-05 09:31:00,58.4,45.8,30.14,NNW,343,18.0,27.9,63,0.00,,,0.00,WeatherDisplay:10.37,2013-03-05 15:31:00,
2013-03-05 09:36:00,58.2,45.7,30.14,NNW,346,19.7,36.8,63,0.00,,,0.00,WeatherDisplay:10.37,2013-03-05 15:36:00,
2013-03-05 09:41:00,58.3,45.8,30.15,NNW,336,18.3,36.8,63,0.00,,,0.00,WeatherDisplay:10.37,2013-03-05 15:41:00,
2013-03-05 09:46:00,58.2,45.7,30.15,NNW,346,17.3,29.3,63,0.00,,,0.00,WeatherDisplay:10.37,2013-03-05 15:46:00,
2013-03-05 09:51:00,58.2,45.7,30.16,NNE,18,17.5,29.3,63,0.00,,,0.00,WeatherDisplay:10.37,2013-03-05 15:51:00,
2013-03-05 09:56:00,58.0,45.5,30.16,NW,313,19.3,33.4,63,0.00,,,0.00,WeatherDisplay:10.37,2013-03-05 15:56:00,
2013-03-05 10:01:00,57.9,45.0,30.16,North,359,17.7,31.1,62,0.00,,,0.00,WeatherDisplay:10.37,2013-03-05 16:01:00,
2013-03-05 10:06:00,57.9,45.0,30.16,NW,323,18.8,29.3,62,0.00,,,0.00,WeatherDisplay:10.37,2013-03-05 16:06:00,
2013-03-05 10:11:00,58.0,45.5,30.16,ENE,59,16.6,25.3,63,0.00,,,0.00,WeatherDisplay:10.37,2013-03-05 16:11:00,
2013-03-05 10:16:00,58.2,45.2,30.16,North,0,17.3,33.4,62,0.00,,,0.00,WeatherDisplay:10.37,2013-03-05 16:16:00,
2013-03-05 10:21:00,58.7,45.7,30.17,North,7,12.4,21.3,62,0.00,,,0.00,WeatherDisplay:10.37,2013-03-05 16:21:00,
2013-03-05 10:26:00,59.1,45.7,30.17,North,4,18.4,30.1,61,0.00,,,0.00,WeatherDisplay:10.37,2013-03-05 16:26:00,
2013-03-05 10:31:00,59.1,45.7,30.17,NNW,343,11.6,25.3,61,0.00,,,0.00,WeatherDisplay:10.37,2013-03-05 16:31:00,
2013-03-05 10:36:00,59.3,44.5,30.17,North,349,20.8,34.5,58,0.00,,,0.00,WeatherDisplay:10.37,2013-03-05 16:36:00,
2013-03-05 10:41:00,59.4,44.6,30.17,North,11,15.9,29.9,58,0.00,,,0.00,WeatherDisplay:10.37,2013-03-05 16:41:00,
2013-03-05 10:46:00,59.6,44.8,30.17,North,359,13.9,26.5,58,0.00,,,0.00,WeatherDisplay:10.37,2013-03-05 16:46:00,
2013-03-05 10:51:00,59.9,44.6,30.18,NNE,23,17.2,29.0,57,0.00,,,0.00,WeatherDisplay:10.37,2013-03-05 16:51:00,
2013-03-05 10:56:00,60.1,45.3,30.19,North,3,12.3,24.2,58,0.00,CLR,,0.00,WeatherDisplay:10.37,2013-03-05 16:56:00,
2013-03-05 11:01:00,60.3,44.5,30.19,NNW,346,13.1,29.7,56,0.00,,,0.00,WeatherDisplay:10.37,2013-03-05 17:01:00,
2013-03-05 11:06:00,60.6,44.8,30.19,North,10,12.2,23.0,56,0.00,,,0.00,WeatherDisplay:10.37,2013-03-05 17:06:00,
2013-03-05 11:11:00,61.0,44.7,30.19,NNW,339,12.0,24.2,55,0.00,,,0.00,WeatherDisplay:10.37,2013-03-05 17:11:00,
2013-03-05 11:16:00,61.4,44.6,30.19,WNW,298,16.5,31.1,54,0.00,CLR,,0.00,WeatherDisplay:10.37,2013-03-05 17:16:00,
2013-03-05 11:21:00,61.6,44.8,30.19,North,349,15.3,29.9,54,0.00,,,0.00,WeatherDisplay:10.37,2013-03-05 17:21:00,
2013-03-05 11:26:00,62.0,43.7,30.19,NW,326,13.7,26.6,51,0.00,,,0.00,WeatherDisplay:10.37,2013-03-05 17:26:00,
2013-03-05 11:31:00,62.3,43.4,30.19,NW,323,14.6,31.1,50,0.00,,,0.00,WeatherDisplay:10.37,2013-03-05 17:31:00,
2013-03-05 11:36:00,62.9,43.4,30.19,North,352,19.3,29.9,49,0.00,,,0.00,WeatherDisplay:10.37,2013-03-05 17:36:00,
2013-03-05 11:41:00,63.5,44.0,30.19,NW,320,13.7,23.0,49,0.00,,,0.00,WeatherDisplay:10.37,2013-03-05 17:41:00,
2013-03-05 11:46:00,63.9,43.3,30.19,NNW,347,17.9,32.9,47,0.00,,,0.00,WeatherDisplay:10.37,2013-03-05 17:46:00,
2013-03-05 11:51:00,64.1,42.9,30.19,North,360,17.5,33.4,46,0.00,,,0.00,WeatherDisplay:10.37,2013-03-05 17:51:00,
2013-03-05 11:56:00,64.3,43.1,30.19,North,352,12.5,26.5,46,0.00,,,0.00,WeatherDisplay:10.37,2013-03-05 17:56:00,
2013-03-05 12:01:00,64.4,42.6,30.19,NNW,347,17.0,28.3,45,0.00,,,0.00,WeatherDisplay:10.37,2013-03-05 18:01:00,
2013-03-05 12:06:00,64.7,42.9,30.19,NW,309,17.1,30.3,45,0.00,,,0.00,WeatherDisplay:10.37,2013-03-05 18:06:00,
2013-03-05 12:11:00,65.2,43.3,30.19,North,349,13.0,30.3,45,0.00,,,0.00,WeatherDisplay:10.37,2013-03-05 18:11:00,
2013-03-05 12:16:00,65.2,42.7,30.19,NW,325,13.6,29.9,44,0.00,,,0.00,WeatherDisplay:10.37,2013-03-05 18:16:00,
2013-03-05 12:21:00,65.4,42.9,30.20,NNE,21,14.8,28.2,44,0.00,,,0.00,WeatherDisplay:10.37,2013-03-05 18:21:00,
2013-03-05 12:26:00,65.6,41.9,30.20,North,349,16.2,28.2,42,0.00,,,0.00,WeatherDisplay:10.37,2013-03-05 18:26:00,
2013-03-05 12:31:00,66.0,42.2,30.20,NW,320,15.1,31.1,42,0.00,,,0.00,WeatherDisplay:10.37,2013-03-05 18:31:00,
2013-03-05 12:36:00,65.9,42.1,30.20,NW,308,13.4,25.3,42,0.00,,,0.00,WeatherDisplay:10.37,2013-03-05 18:36:00,
2013-03-05 12:41:00,66.7,41.6,30.20,NNW,329,19.1,29.9,40,0.00,,,0.00,WeatherDisplay:10.37,2013-03-05 18:41:00,
2013-03-05 12:46:00,67.3,41.5,30.20,North,8,16.7,29.9,39,0.00,,,0.00,WeatherDisplay:10.37,2013-03-05 18:46:00,
2013-03-05 12:51:00,67.5,41.7,30.20,NW,318,17.3,26.5,39,0.00,,,0.00,WeatherDisplay:10.37,2013-03-05 18:51:00,
2013-03-05 12:56:00,67.9,41.3,30.20,NNW,340,14.7,28.8,38,0.00,,,0.00,WeatherDisplay:10.37,2013-03-05 18:56:00,
2013-03-05 13:01:00,68.1,40.8,30.20,NNW,328,17.2,28.8,37,0.00,,,0.00,WeatherDisplay:10.37,2013-03-05 19:01:00,
2013-03-05 13:06:00,68.1,40.1,30.20,WNW,295,16.2,29.9,36,0.00,,,0.00,WeatherDisplay:10.37,2013-03-05 19:06:00,
2013-03-05 13:11:00,68.2,40.9,30.20,NNW,342,13.7,27.6,37,0.00,,,0.00,WeatherDisplay:10.37,2013-03-05 19:11:00,
2013-03-05 13:16:00,68.4,40.4,30.20,NW,315,12.3,19.2,36,0.00,,,0.00,WeatherDisplay:10.37,2013-03-05 19:16:00,
2013-03-05 13:21:00,68.3,41.7,30.20,NNW,347,12.6,26.5,38,0.00,,,0.00,WeatherDisplay:10.37,2013-03-05 19:21:00,
2013-03-05 13:26:00,67.8,39.9,30.20,NNW,337,17.4,29.9,36,0.00,,,0.00,WeatherDisplay:10.37,2013-03-05 19:26:00,
2013-03-05 13:31:00,67.5,41.0,30.20,North,7,10.1,20.7,38,0.00,,,0.00,WeatherDisplay:10.37,2013-03-05 19:31:00,
2013-03-05 13:36:00,67.9,39.9,30.20,NNW,333,16.7,26.5,36,0.00,CLR,,0.00,WeatherDisplay:10.37,2013-03-05 19:36:00,
2013-03-05 13:41:00,68.0,40.7,30.20,North,357,12.6,27.6,37,0.00,,,0.00,WeatherDisplay:10.37,2013-03-05 19:41:00,
2013-03-05 13:46:00,68.3,40.3,30.21,WNW,302,13.1,25.3,36,0.00,,,0.00,WeatherDisplay:10.37,2013-03-05 19:46:00,
2013-03-05 13:51:00,67.8,39.9,30.21,WNW,299,18.4,26.5,36,0.00,,,0.00,WeatherDisplay:10.37,2013-03-05 19:51:00,
2013-03-05 13:56:00,67.9,40.7,30.21,NNW,336,14.7,21.5,37,0.00,,,0.00,WeatherDisplay:10.37,2013-03-05 19:56:00,
2013-03-05 14:01:00,67.9,39.2,30.20,NW,325,18.6,28.0,35,0.00,,,0.00,WeatherDisplay:10.37,2013-03-05 20:01:00,
2013-03-05 14:06:00,67.9,39.9,30.21,NW,318,14.4,26.5,36,0.00,,,0.00,WeatherDisplay:10.37,2013-03-05 20:06:00,
2013-03-05 14:11:00,68.0,39.3,30.21,NW,319,16.1,25.3,35,0.00,,,0.00,WeatherDisplay:10.37,2013-03-05 20:11:00,
2013-03-05 14:16:00,68.0,39.3,30.21,North,349,15.0,27.6,35,0.00,,,0.00,WeatherDisplay:10.37,2013-03-05 20:16:00,
2013-03-05 14:21:00,68.1,39.4,30.21,NNW,328,12.7,27.6,35,0.00,,,0.00,WeatherDisplay:10.37,2013-03-05 20:21:00,
2013-03-05 14:26:00,68.0,39.3,30.21,North,359,15.0,25.1,35,0.00,CLR,,0.00,WeatherDisplay:10.37,2013-03-05 20:26:00,
2013-03-05 14:31:00,67.8,39.1,30.21,NNW,328,11.3,24.0,35,0.00,,,0.00,WeatherDisplay:10.37,2013-03-05 20:31:00,
2013-03-05 14:36:00,67.3,38.0,30.21,North,354,13.2,25.2,34,0.00,,,0.00,WeatherDisplay:10.37,2013-03-05 20:36:00,
2013-03-05 14:41:00,67.2,38.6,30.21,NW,320,14.0,27.6,35,0.00,,,0.00,WeatherDisplay:10.37,2013-03-05 20:41:00,
2013-03-05 14:46:00,67.1,37.8,30.21,NNW,329,15.4,23.0,34,0.00,,,0.00,WeatherDisplay:10.37,2013-03-05 20:46:00,
2013-03-05 14:51:00,67.2,37.9,30.20,NW,318,16.5,23.0,34,0.00,,,0.00,WeatherDisplay:10.37,2013-03-05 20:51:00,
2013-03-05 14:56:00,67.2,37.9,30.20,NNW,339,11.9,23.0,34,0.00,,,0.00,WeatherDisplay:10.37,2013-03-05 20:56:00,
2013-03-05 15:01:00,67.2,37.1,30.20,NW,326,14.5,20.7,33,0.00,CLR,,0.00,WeatherDisplay:10.37,2013-03-05 21:01:00,
2013-03-05 15:06:00,67.1,37.8,30.21,North,360,15.1,26.5,34,0.00,,,0.00,WeatherDisplay:10.37,2013-03-05 21:06:00,
2013-03-05 15:11:00,67.3,38.0,30.20,North,350,12.1,25.3,34,0.00,,,0.00,WeatherDisplay:10.37,2013-03-05 21:11:00,
2013-03-05 15:16:00,67.3,35.6,30.20,NNW,333,17.2,26.8,31,0.00,,,0.00,WeatherDisplay:10.37,2013-03-05 21:16:00,
2013-03-05 15:21:00,67.1,35.4,30.21,NW,320,16.0,30.1,31,0.00,,,0.00,WeatherDisplay:10.37,2013-03-05 21:21:00,
2013-03-05 15:26:00,67.6,37.5,30.20,NNW,346,10.7,16.1,33,0.00,,,0.00,WeatherDisplay:10.37,2013-03-05 21:26:00,
2013-03-05 15:31:00,67.9,36.1,30.21,North,349,13.3,25.3,31,0.00,,,0.00,WeatherDisplay:10.37,2013-03-05 21:31:00,
2013-03-05 15:36:00,67.8,35.2,30.21,NNW,347,16.4,24.9,30,0.00,CLR,,0.00,WeatherDisplay:10.37,2013-03-05 21:36:00,
2013-03-05 15:41:00,67.8,35.2,30.21,NNW,344,14.4,24.2,30,0.00,CLR,,0.00,WeatherDisplay:10.37,2013-03-05 21:41:00,
2013-03-05 15:46:00,67.6,35.0,30.20,NW,322,12.4,21.9,30,0.00,CLR,,0.00,WeatherDisplay:10.37,2013-03-05 21:46:00,
2013-03-05 15:51:00,67.7,36.0,30.20,North,3,10.9,16.3,31,0.00,CLR,,0.00,WeatherDisplay:10.37,2013-03-05 21:51:00,
2013-03-05 15:56:00,67.7,35.1,30.20,NNW,343,13.1,17.3,30,0.00,CLR,,0.00,WeatherDisplay:10.37,2013-03-05 21:56:00,
2013-03-05 16:01:00,67.7,35.1,30.21,North,349,12.5,19.6,30,0.00,CLR,,0.00,WeatherDisplay:10.37,2013-03-05 22:01:00,
2013-03-05 16:07:00,67.4,34.9,30.21,NW,319,13.6,23.0,30,0.00,CLR,,0.00,WeatherDisplay:10.37,2013-03-05 22:07:00,
2013-03-05 16:12:00,67.7,33.4,30.21,North,1,16.7,24.5,28,0.00,,,0.00,WeatherDisplay:10.37,2013-03-05 22:12:00,
2013-03-05 16:17:00,67.8,33.5,30.21,North,10,12.2,19.6,28,0.00,,,0.00,WeatherDisplay:10.37,2013-03-05 22:17:00,
2013-03-05 16:22:00,67.9,34.4,30.21,NNW,343,8.4,20.7,29,0.00,,,0.00,WeatherDisplay:10.37,2013-03-05 22:22:00,
2013-03-05 16:27:00,68.1,33.7,30.21,NW,322,12.5,19.6,28,0.00,CLR,,0.00,WeatherDisplay:10.37,2013-03-05 22:27:00,
2013-03-05 16:32:00,68.0,33.7,30.21,NNW,335,9.5,21.9,28,0.00,CLR,,0.00,WeatherDisplay:10.37,2013-03-05 22:32:00,
2013-03-05 16:37:00,68.3,32.1,30.21,NNW,329,13.1,21.9,26,0.00,CLR,,0.00,WeatherDisplay:10.37,2013-03-05 22:37:00,
2013-03-05 16:42:00,68.4,32.1,30.21,North,350,10.1,19.6,26,0.00,CLR,,0.00,WeatherDisplay:10.37,2013-03-05 22:42:00,
2013-03-05 16:48:00,68.4,32.1,30.21,NNW,335,13.4,19.6,26,0.00,CLR,,0.00,WeatherDisplay:10.37,2013-03-05 22:48:00,
2013-03-05 16:53:00,68.3,33.0,30.21,NW,326,10.0,17.3,27,0.00,CLR,,0.00,WeatherDisplay:10.37,2013-03-05 22:53:00,
2013-03-05 16:58:00,68.2,32.9,30.21,NNW,330,9.9,17.3,27,0.00,CLR,,0.00,WeatherDisplay:10.37,2013-03-05 22:58:00,
2013-03-05 17:03:00,68.3,31.1,30.21,North,356,12.2,17.5,25,0.00,CLR,,0.00,WeatherDisplay:10.37,2013-03-05 23:03:00,
2013-03-05 17:08:00,68.5,30.3,30.22,North,10,12.9,20.8,24,0.00,CLR,,0.00,WeatherDisplay:10.37,2013-03-05 23:08:00,
2013-03-05 17:13:00,68.5,31.3,30.22,WNW,296,11.8,19.6,25,0.00,CLR,,0.00,WeatherDisplay:10.37,2013-03-05 23:13:00,
2013-03-05 17:18:00,68.5,30.3,30.22,NNW,344,13.0,23.8,24,0.00,CLR,,0.00,WeatherDisplay:10.37,2013-03-05 23:18:00,
2013-03-05 17:23:00,68.4,29.1,30.22,North,6,11.4,23.8,23,0.00,,,0.00,WeatherDisplay:10.37,2013-03-05 23:23:00,
2013-03-05 17:28:00,68.4,30.2,30.22,North,11,8.5,14.3,24,0.00,,,0.00,WeatherDisplay:10.37,2013-03-05 23:28:00,
2013-03-05 17:33:00,68.4,32.1,30.22,North,360,8.9,16.4,26,0.00,,,0.00,WeatherDisplay:10.37,2013-03-05 23:33:00,
2013-03-05 17:38:00,68.4,31.2,30.22,North,350,11.3,17.3,25,0.00,CLR,,0.00,WeatherDisplay:10.37,2013-03-05 23:38:00,
2013-03-05 17:43:00,68.2,32.0,30.22,NNW,330,10.7,17.7,26,0.00,CLR,,0.00,WeatherDisplay:10.37,2013-03-05 23:43:00,
2013-03-05 17:48:00,67.8,33.5,30.23,North,357,10.7,17.3,28,0.00,CLR,,0.00,WeatherDisplay:10.37,2013-03-05 23:48:00,
2013-03-05 17:53:00,67.4,32.2,30.23,NW,316,9.0,15.2,27,0.00,CLR,,0.00,WeatherDisplay:10.37,2013-03-05 23:53:00,
2013-03-05 17:58:00,67.2,31.1,30.23,NW,322,6.1,17.3,26,0.00,CLR,,0.00,WeatherDisplay:10.37,2013-03-05 23:58:00,
2013-03-05 18:03:00,66.9,30.9,30.24,NNW,340,8.9,15.0,26,0.00,CLR,,0.00,WeatherDisplay:10.37,2013-03-06 00:03:00,
2013-03-05 18:08:00,66.7,31.6,30.23,NW,311,8.9,13.1,27,0.00,CLR,,0.00,WeatherDisplay:10.37,2013-03-06 00:08:00,
2013-03-05 18:13:00,66.3,33.1,30.23,NNW,344,7.6,12.7,29,0.00,CLR,,0.00,WeatherDisplay:10.37,2013-03-06 00:13:00,
2013-03-05 18:18:00,66.0,34.5,30.24,NNW,340,6.6,10.4,31,0.00,CLR,,0.00,WeatherDisplay:10.37,2013-03-06 00:18:00,
2013-03-05 18:23:00,65.6,34.1,30.24,NNW,344,5.5,8.1,31,0.00,CLR,,0.00,WeatherDisplay:10.37,2013-03-06 00:23:00,
2013-03-05 18:28:00,65.3,34.7,30.25,NNW,339,4.4,9.8,32,0.00,CLR,,0.00,WeatherDisplay:10.37,2013-03-06 00:28:00,
2013-03-05 18:33:00,64.9,34.3,30.25,NNW,336,7.1,9.6,32,0.00,CLR,,0.00,WeatherDisplay:10.37,2013-03-06 00:33:00,
2013-03-05 18:38:00,64.5,34.7,30.25,NW,311,5.7,9.2,33,0.00,CLR,,0.00,WeatherDisplay:10.37,2013-03-06 00:38:00,
2013-03-05 18:43:00,64.1,32.8,30.25,NNW,339,10.4,17.3,31,0.00,CLR,,0.00,WeatherDisplay:10.37,2013-03-06 00:43:00,
2013-03-05 18:48:00,63.8,31.7,30.25,NNW,335,8.9,13.8,30,0.00,CLR,,0.00,WeatherDisplay:10.37,2013-03-06 00:48:00,
2013-03-05 18:53:00,63.7,32.5,30.25,NNW,340,8.6,12.7,31,0.00,CLR,,0.00,WeatherDisplay:10.37,2013-03-06 00:53:00,
2013-03-05 18:58:00,63.3,32.1,30.26,North,356,8.8,12.7,31,0.00,CLR,,0.00,WeatherDisplay:10.37,2013-03-06 00:58:00,
2013-03-05 19:03:00,63.0,32.7,30.26,NNW,337,7.0,10.4,32,0.00,CLR,,0.00,WeatherDisplay:10.37,2013-03-06 01:03:00,
2013-03-05 19:08:00,62.7,33.2,30.26,NNW,344,6.4,9.1,33,0.00,CLR,,0.00,WeatherDisplay:10.37,2013-03-06 01:08:00,
2013-03-05 19:13:00,62.4,33.6,30.26,NNE,16,4.8,10.4,34,0.00,CLR,,0.00,WeatherDisplay:10.37,2013-03-06 01:13:00,
2013-03-05 19:18:00,62.0,34.0,30.26,North,3,5.5,9.2,35,0.00,CLR,,0.00,WeatherDisplay:10.37,2013-03-06 01:18:00,
2013-03-05 19:23:00,61.5,34.3,30.26,NNW,332,6.5,8.1,36,0.00,CLR,,0.00,WeatherDisplay:10.37,2013-03-06 01:23:00,
2013-03-05 19:28:00,61.2,35.4,30.26,North,356,6.1,8.1,38,0.00,CLR,,0.00,WeatherDisplay:10.37,2013-03-06 01:28:00,
2013-03-05 19:33:00,60.7,36.2,30.26,North,359,4.5,8.1,40,0.00,CLR,,0.00,WeatherDisplay:10.37,2013-03-06 01:33:00,
2013-03-05 19:39:00,60.4,37.2,30.26,NNW,346,5.7,8.1,42,0.00,CLR,,0.00,WeatherDisplay:10.37,2013-03-06 01:39:00,
2013-03-05 19:44:00,60.1,37.5,30.26,NNW,342,4.7,8.2,43,0.00,CLR,,0.00,WeatherDisplay:10.37,2013-03-06 01:44:00,
2013-03-05 19:49:00,59.8,38.4,30.26,North,356,4.9,6.9,45,0.00,CLR,,0.00,WeatherDisplay:10.37,2013-03-06 01:49:00,
2013-03-05 19:54:00,59.5,38.1,30.27,North,357,5.4,6.9,45,0.00,CLR,,0.00,WeatherDisplay:10.37,2013-03-06 01:54:00,
2013-03-05 19:59:00,59.4,38.6,30.27,North,359,4.5,6.9,46,0.00,CLR,,0.00,WeatherDisplay:10.37,2013-03-06 01:59:00,
2013-03-05 20:04:00,59.1,37.8,30.27,NNE,13,5.6,9.8,45,0.00,CLR,,0.00,WeatherDisplay:10.37,2013-03-06 02:04:00,
2013-03-05 20:09:00,58.9,37.0,30.27,NNW,347,5.9,9.3,44,0.00,CLR,,0.00,WeatherDisplay:10.37,2013-03-06 02:09:00,
2013-03-05 20:14:00,58.8,35.7,30.28,NNW,343,6.8,9.3,42,0.00,CLR,,0.00,WeatherDisplay:10.37,2013-03-06 02:14:00,
2013-03-05 20:19:00,58.8,34.5,30.28,North,0,7.0,10.7,40,0.00,CLR,,0.00,WeatherDisplay:10.37,2013-03-06 02:19:00,
2013-03-05 20:24:00,58.8,34.5,30.28,North,356,7.3,9.7,40,0.00,CLR,,0.00,WeatherDisplay:10.37,2013-03-06 02:24:00,
2013-03-05 20:29:00,58.9,33.3,30.28,NNE,16,8.1,14.5,38,0.00,CLR,,0.00,WeatherDisplay:10.37,2013-03-06 02:29:00,
2013-03-05 20:34:00,59.0,33.4,30.28,North,356,6.9,11.5,38,0.00,CLR,,0.00,WeatherDisplay:10.37,2013-03-06 02:34:00,
2013-03-05 20:39:00,59.0,32.7,30.28,NNE,13,8.3,12.7,37,0.00,CLR,,0.00,WeatherDisplay:10.37,2013-03-06 02:39:00,
2013-03-05 20:44:00,59.2,32.9,30.28,NNW,347,8.5,11.0,37,0.00,CLR,,0.00,WeatherDisplay:10.37,2013-03-06 02:44:00,
2013-03-05 20:49:00,59.1,32.8,30.28,North,356,7.0,9.2,37,0.00,CLR,,0.00,WeatherDisplay:10.37,2013-03-06 02:49:00,
2013-03-05 20:54:00,59.0,32.7,30.29,North,356,7.3,9.2,37,0.00,CLR,,0.00,WeatherDisplay:10.37,2013-03-06 02:54:00,
2013-03-05 20:59:00,58.8,32.6,30.29,NNW,336,6.3,10.4,37,0.00,CLR,,0.00,WeatherDisplay:10.37,2013-03-06 02:59:00,
2013-03-05 21:04:00,58.8,32.6,30.29,NNW,342,7.2,11.5,37,0.00,CLR,,0.00,WeatherDisplay:10.37,2013-03-06 03:04:00,
2013-03-05 21:09:00,58.6,31.7,30.29,North,6,5.1,10.4,36,0.00,CLR,,0.00,WeatherDisplay:10.37,2013-03-06 03:09:00,
2013-03-05 21:14:00,58.4,31.5,30.29,North,359,7.3,10.8,36,0.00,CLR,,0.00,WeatherDisplay:10.37,2013-03-06 03:14:00,
2013-03-05 21:19:00,58.3,31.4,30.29,North,7,8.0,10.4,36,0.00,CLR,,0.00,WeatherDisplay:10.37,2013-03-06 03:19:00,
2013-03-05 21:24:00,58.2,32.0,30.29,North,357,6.0,9.3,37,0.00,CLR,,0.00,WeatherDisplay:10.37,2013-03-06 03:24:00,
2013-03-05 21:29:00,57.9,31.8,30.29,North,357,6.9,9.3,37,0.00,CLR,,0.00,WeatherDisplay:10.37,2013-03-06 03:29:00,
2013-03-05 21:34:00,57.8,31.7,30.30,North,10,7.3,10.4,37,0.00,CLR,,0.00,WeatherDisplay:10.37,2013-03-06 03:34:00,
2013-03-05 21:39:00,57.6,31.5,30.30,NE,56,7.8,10.4,37,0.00,CLR,,0.00,WeatherDisplay:10.37,2013-03-06 03:39:00,
2013-03-05 21:44:00,57.5,31.4,30.30,North,1,7.0,10.4,37,0.00,CLR,,0.00,WeatherDisplay:10.37,2013-03-06 03:44:00,
2013-03-05 21:49:00,57.4,30.6,30.30,NNW,329,6.4,9.2,36,0.00,CLR,,0.00,WeatherDisplay:10.37,2013-03-06 03:49:00,
2013-03-05 21:54:00,57.4,31.3,30.30,NNE,24,7.1,9.2,37,0.00,CLR,,0.00,WeatherDisplay:10.37,2013-03-06 03:54:00,
2013-03-05 21:59:00,57.2,31.1,30.31,North,6,7.1,10.4,37,0.00,CLR,,0.00,WeatherDisplay:10.37,2013-03-06 03:59:00,
2013-03-05 22:04:00,57.1,31.7,30.31,North,4,6.7,11.5,38,0.00,CLR,,0.00,WeatherDisplay:10.37,2013-03-06 04:04:00,
2013-03-05 22:09:00,56.8,31.4,30.31,NNE,23,6.7,10.4,38,0.00,CLR,,0.00,WeatherDisplay:10.37,2013-03-06 04:09:00,
2013-03-05 22:14:00,56.6,31.9,30.31,NNW,346,5.8,10.4,39,0.00,CLR,,0.00,WeatherDisplay:10.37,2013-03-06 04:14:00,
2013-03-05 22:19:00,56.4,31.7,30.31,NNW,344,8.3,11.5,39,0.00,CLR,,0.00,WeatherDisplay:10.37,2013-03-06 04:19:00,
2013-03-05 22:24:00,56.3,32.3,30.31,NNE,13,8.2,10.4,40,0.00,CLR,,0.00,WeatherDisplay:10.37,2013-03-06 04:24:00,
2013-03-05 22:29:00,56.1,32.1,30.31,North,0,8.1,11.5,40,0.00,CLR,,0.00,WeatherDisplay:10.37,2013-03-06 04:29:00,
2013-03-05 22:34:00,56.0,31.4,30.31,NNW,346,9.8,13.8,39,0.00,CLR,,0.00,WeatherDisplay:10.37,2013-03-06 04:34:00,
2013-03-05 22:39:00,56.0,31.4,30.31,North,357,8.2,15.0,39,0.00,CLR,,0.00,WeatherDisplay:10.37,2013-03-06 04:39:00,
2013-03-05 22:44:00,56.0,31.4,30.31,North,352,8.5,13.8,39,0.00,CLR,,0.00,WeatherDisplay:10.37,2013-03-06 04:44:00,
2013-03-05 22:49:00,56.1,30.8,30.31,NNW,342,9.1,12.7,38,0.00,CLR,,0.00,WeatherDisplay:10.37,2013-03-06 04:49:00,
2013-03-05 22:54:00,56.0,30.7,30.31,North,10,9.6,13.8,38,0.00,CLR,,0.00,WeatherDisplay:10.37,2013-03-06 04:54:00,
2013-03-05 22:59:00,56.0,30.7,30.31,North,354,7.1,12.7,38,0.00,CLR,,0.00,WeatherDisplay:10.37,2013-03-06 04:59:00,
2013-03-05 23:00:00,56.0,30.7,30.31,North,359,7.4,15.9,38,0.00,CLR,,0.00,WeatherDisplay:10.37,2013-03-06 05:00:00,
2013-03-05 23:01:00,56.0,30.7,30.31,NNW,343,7.1,13.2,38,0.00,CLR,,0.00,WeatherDisplay:10.37,2013-03-06 05:01:00,
2013-03-05 23:06:00,56.0,30.7,30.32,North,4,7.7,15.0,38,0.00,CLR,,0.00,WeatherDisplay:10.37,2013-03-06 05:06:00,
2013-03-05 23:11:00,56.1,30.2,30.31,North,3,10.4,16.1,37,0.00,CLR,,0.00,WeatherDisplay:10.37,2013-03-06 05:11:00,
2013-03-05 23:14:00,56.2,29.6,30.32,NNE,13,13.8,13.8,36,0.00,CLR,,0.00,WeatherDisplay:10.37,2013-03-06 05:14:00,
2013-03-05 23:19:00,56.3,30.3,30.32,North,11,7.5,15.0,37,0.00,CLR,,0.00,WeatherDisplay:10.37,2013-03-06 05:19:00,
2013-03-05 23:24:00,56.3,29.7,30.32,NNE,17,9.2,13.8,36,0.00,CLR,,0.00,WeatherDisplay:10.37,2013-03-06 05:24:00,
2013-03-05 23:29:00,56.2,28.9,30.32,North,357,10.3,14.2,35,0.00,CLR,,0.00,WeatherDisplay:10.37,2013-03-06 05:29:00,
2013-03-05 23:35:00,56.1,28.8,30.32,NNE,16,9.8,15.0,35,0.00,CLR,,0.00,WeatherDisplay:10.37,2013-03-06 05:35:00,
2013-03-05 23:40:00,55.9,27.9,30.32,North,4,8.7,12.9,34,0.00,CLR,,0.00,WeatherDisplay:10.37,2013-03-06 05:40:00,
2013-03-05 23:45:00,55.8,28.5,30.32,NNE,20,8.6,15.0,35,0.00,CLR,,0.00,WeatherDisplay:10.37,2013-03-06 05:45:00,
2013-03-05 23:50:00,55.8,28.5,30.32,North,7,9.3,13.8,35,0.00,CLR,,0.00,WeatherDisplay:10.37,2013-03-06 05:50:00,
2013-03-05 23:55:00,55.8,28.5,30.32,North,1,11.0,13.8,35,0.00,CLR,,0.00,WeatherDisplay:10.37,2013-03-06 05:55:00,